createdAt,value
2023-05-10T00:00:04.391Z,100325.38
2023-05-10T00:00:55.485Z,100322.34
2023-05-10T00:01:42.421Z,100317.91
2023-05-10T00:02:16.499Z,100312.66
2023-05-10T00:03:04.449Z,100296.00
2023-05-10T00:03:38.724Z,100319.63
2023-05-10T00:04:25.376Z,100310.72
2023-05-10T00:04:59.486Z,100324.06
2023-05-10T00:05:40.383Z,100311.41
2023-05-10T00:06:21.237Z,100325.38
2023-05-10T00:07:02.350Z,100320.00
2023-05-10T00:07:45.690Z,100273.25
2023-05-10T00:08:25.361Z,100305.97
2023-05-10T00:09:05.482Z,100300.59
2023-05-10T00:09:45.350Z,100306.19
2023-05-10T00:10:25.426Z,100299.81
2023-05-10T00:11:05.379Z,100309.59
2023-05-10T00:11:45.559Z,100323.81
2023-05-10T00:12:26.359Z,100317.59
2023-05-10T00:13:06.498Z,100324.97
2023-05-10T00:13:47.364Z,100318.84
2023-05-10T00:14:27.440Z,100323.97
2023-05-10T00:15:07.359Z,100309.69
2023-05-10T00:15:47.431Z,100311.09
2023-05-10T00:16:27.442Z,100316.13
2023-05-10T00:17:07.469Z,100294.31
2023-05-10T00:17:48.369Z,100328.25
2023-05-10T00:18:28.467Z,100322.88
2023-05-10T00:19:08.353Z,100306.56
2023-05-10T00:19:49.123Z,100319.94
2023-05-10T00:20:29.349Z,100321.66
2023-05-10T00:21:09.441Z,100290.25
2023-05-10T00:21:49.359Z,100320.66
2023-05-10T00:22:23.133Z,100317.25
2023-05-10T00:23:10.341Z,100297.22
2023-05-10T00:23:44.059Z,100319.75
2023-05-10T00:24:31.351Z,100289.03
2023-05-10T00:25:06.264Z,100291.72
2023-05-10T00:25:53.374Z,100323.16
2023-05-10T00:26:27.218Z,100306.88
2023-05-10T00:27:14.380Z,100304.06
2023-05-10T00:27:48.550Z,100301.44
2023-05-10T00:28:35.422Z,100314.81
2023-05-10T00:29:09.167Z,100303.53
2023-05-10T00:29:56.346Z,100323.06
2023-05-10T00:30:30.228Z,100299.06
2023-05-10T00:31:17.359Z,100308.84
2023-05-10T00:31:51.264Z,100319.63
2023-05-10T00:32:38.429Z,100299.06
2023-05-10T00:33:12.544Z,100314.50
2023-05-10T00:33:59.344Z,100317.34
2023-05-10T00:34:33.243Z,100292.03
2023-05-10T00:35:21.328Z,100318.38
2023-05-10T00:35:55.067Z,100288.34
2023-05-10T00:36:42.350Z,100312.41
2023-05-10T00:37:16.094Z,100310.72
2023-05-10T00:38:03.367Z,100310.72
2023-05-10T00:38:37.100Z,100295.38
2023-05-10T00:39:24.336Z,100286.03
2023-05-10T00:40:20.362Z,100288.56
2023-05-10T00:41:14.368Z,100300.53
2023-05-10T00:42:08.330Z,100315.38
2023-05-10T00:43:02.319Z,100306.72
2023-05-10T00:43:43.338Z,100306.72
2023-05-10T00:44:23.449Z,100309.25
2023-05-10T00:45:03.358Z,100301.81
2023-05-10T00:45:43.535Z,100296.16
2023-05-10T00:46:24.350Z,100298.34
2023-05-10T00:47:05.462Z,100287.94
2023-05-10T00:47:46.402Z,100285.03
2023-05-10T00:48:27.344Z,100300.69
2023-05-10T00:49:01.424Z,100283.06
2023-05-10T00:49:49.307Z,100282.94
2023-05-10T00:50:23.436Z,100276.22
2023-05-10T00:51:10.336Z,100288.19
2023-05-10T00:51:45.505Z,100278.91
2023-05-10T00:52:33.350Z,100274.22
2023-05-10T00:53:07.405Z,100283.44
2023-05-10T00:53:48.348Z,100280.16
2023-05-10T00:54:28.429Z,100285.25
2023-05-10T00:55:10.317Z,100285.31
2023-05-10T00:55:50.426Z,100278.22
2023-05-10T00:56:32.303Z,100286.75
2023-05-10T00:57:12.415Z,100285.78
2023-05-10T00:57:53.336Z,100283.94
2023-05-10T00:58:33.400Z,100297.00
2023-05-10T00:59:14.392Z,100285.38
2023-05-10T00:59:54.428Z,100295.31
2023-05-10T01:00:35.318Z,100294.19
2023-05-10T01:01:16.423Z,100296.72
2023-05-10T01:01:57.319Z,100296.13
2023-05-10T01:02:37.471Z,100291.00
2023-05-10T01:03:19.492Z,100292.16
2023-05-10T01:04:01.747Z,100296.34
2023-05-10T01:04:43.357Z,100288.78
2023-05-10T01:05:23.565Z,100299.34
2023-05-10T01:06:03.320Z,100274.00
2023-05-10T01:06:43.403Z,100283.97
2023-05-10T01:07:24.354Z,100301.19
2023-05-10T01:08:04.402Z,100276.69
2023-05-10T01:08:45.511Z,100301.34
2023-05-10T01:09:27.364Z,100270.59
2023-05-10T01:10:07.346Z,100262.72
2023-05-10T01:11:01.356Z,100279.13
2023-05-10T01:11:55.358Z,100291.78
2023-05-10T01:12:54.352Z,100295.63
2023-05-10T01:13:51.310Z,100287.34
2023-05-10T01:14:45.336Z,100270.56
2023-05-10T01:15:32.324Z,100295.38
2023-05-10T01:16:07.418Z,100292.38
2023-05-10T01:16:56.316Z,100300.84
2023-05-10T01:17:30.475Z,100299.13
2023-05-10T01:18:17.296Z,100284.16
2023-05-10T01:18:52.432Z,100297.53
2023-05-10T01:19:42.303Z,100271.44
2023-05-10T01:20:17.630Z,100276.81
2023-05-10T01:21:13.320Z,100292.28
2023-05-10T01:22:09.386Z,100283.91
2023-05-10T01:23:19.317Z,100298.53
2023-05-10T01:24:20.390Z,100293.41
2023-05-10T01:25:25.282Z,100291.59
2023-05-10T01:26:28.319Z,100284.06
2023-05-10T01:27:55.304Z,100286.75
2023-05-10T01:29:26.316Z,100284.59
2023-05-10T01:30:42.303Z,100274.59
2023-05-10T01:31:54.325Z,100284.16
2023-05-10T01:33:34.293Z,100278.72
2023-05-10T01:34:34.283Z,100277.19
2023-05-10T01:35:41.290Z,100282.72
2023-05-10T01:36:50.288Z,100261.97
2023-05-10T01:37:41.317Z,100270.69
2023-05-10T01:38:55.526Z,100275.78
2023-05-10T01:39:55.291Z,100282.66
2023-05-10T01:41:24.385Z,100277.81
2023-05-10T01:42:24.299Z,100283.63
2023-05-10T01:43:34.321Z,100271.81
2023-05-10T01:44:50.639Z,100278.41
2023-05-10T01:45:55.272Z,100258.44
2023-05-10T01:46:46.750Z,100283.50
2023-05-10T01:47:43.338Z,100270.28
2023-05-10T01:48:18.351Z,100280.38
2023-05-10T01:49:04.311Z,100282.81
2023-05-10T01:49:57.367Z,100272.13
2023-05-10T01:50:38.299Z,100272.97
2023-05-10T01:51:18.441Z,100279.53
2023-05-10T01:52:04.269Z,100280.38
2023-05-10T01:52:50.351Z,100272.25
2023-05-10T01:53:31.263Z,100274.00
2023-05-10T01:54:19.282Z,100240.19
2023-05-10T01:55:31.276Z,100276.28
2023-05-10T01:56:26.295Z,100283.50
2023-05-10T01:57:21.277Z,100237.91
2023-05-10T01:58:22.284Z,100274.66
2023-05-10T01:59:22.328Z,100274.16
2023-05-10T02:00:18.465Z,100252.44
2023-05-10T02:01:16.394Z,100261.59
2023-05-10T02:02:13.354Z,100262.44
2023-05-10T02:03:07.377Z,100257.28
2023-05-10T02:04:02.309Z,100271.28
2023-05-10T02:04:43.274Z,100247.88
2023-05-10T02:05:24.447Z,100275.25
2023-05-10T02:06:05.245Z,100245.00
2023-05-10T02:06:46.316Z,100276.69
2023-05-10T02:07:27.239Z,100267.53
2023-05-10T02:08:08.336Z,100244.44
2023-05-10T02:08:49.267Z,100265.28
2023-05-10T02:09:31.623Z,100257.88
2023-05-10T02:10:15.466Z,100263.59
2023-05-10T02:11:01.368Z,100267.00
2023-05-10T02:11:41.239Z,100272.00
2023-05-10T02:12:21.339Z,100270.72
2023-05-10T02:13:02.292Z,100257.00
2023-05-10T02:13:44.572Z,100244.31
2023-05-10T02:14:25.250Z,100268.00
2023-05-10T02:15:07.428Z,100257.72
2023-05-10T02:15:48.270Z,100259.88
2023-05-10T02:16:32.444Z,100254.31
2023-05-10T02:17:14.259Z,100240.50
2023-05-10T02:17:54.405Z,100258.31
2023-05-10T02:18:35.253Z,100258.47
2023-05-10T02:19:16.443Z,100269.16
2023-05-10T02:19:57.225Z,100262.72
2023-05-10T02:20:39.321Z,100269.56
2023-05-10T02:21:20.276Z,100263.59
2023-05-10T02:22:00.428Z,100249.91
2023-05-10T02:22:41.243Z,100265.16
2023-05-10T02:23:22.339Z,100248.50
2023-05-10T02:24:03.265Z,100255.06
2023-05-10T02:24:44.328Z,100262.06
2023-05-10T02:25:27.253Z,100269.03
2023-05-10T02:26:08.358Z,100265.91
2023-05-10T02:26:49.243Z,100253.94
2023-05-10T02:27:31.320Z,100264.78
2023-05-10T02:28:14.249Z,100254.38
2023-05-10T02:28:55.786Z,100264.78
2023-05-10T02:29:36.343Z,100258.94
2023-05-10T02:30:18.490Z,100251.09
2023-05-10T02:31:00.232Z,100271.06
2023-05-10T02:31:44.388Z,100266.91
2023-05-10T02:32:25.287Z,100246.81
2023-05-10T02:33:05.367Z,100256.22
2023-05-10T02:33:48.215Z,100263.03
2023-05-10T02:34:30.415Z,100264.47
2023-05-10T02:35:12.223Z,100237.25
2023-05-10T02:35:53.372Z,100271.75
2023-05-10T02:36:35.281Z,100265.06
2023-05-10T02:37:15.298Z,100272.59
2023-05-10T02:37:56.274Z,100278.19
2023-05-10T02:38:36.315Z,100266.47
2023-05-10T02:39:20.225Z,100256.22
2023-05-10T02:40:04.464Z,100268.47
2023-05-10T02:40:45.211Z,100253.94
2023-05-10T02:41:27.335Z,100274.47
2023-05-10T02:42:09.238Z,100256.81
2023-05-10T02:42:50.840Z,100226.00
2023-05-10T02:43:32.246Z,100270.19
2023-05-10T02:44:14.307Z,100270.47
2023-05-10T02:44:58.211Z,100259.78
2023-05-10T02:45:39.898Z,100238.25
2023-05-10T02:46:20.242Z,100234.84
2023-05-10T02:47:00.918Z,100251.97
2023-05-10T02:47:42.262Z,100260.78
2023-05-10T02:48:23.312Z,100263.78
2023-05-10T02:49:03.247Z,100260.09
2023-05-10T02:49:43.350Z,100238.41
2023-05-10T02:50:23.217Z,100232.28
2023-05-10T02:51:13.439Z,100243.25
2023-05-10T02:51:59.198Z,100262.50
2023-05-10T02:52:55.234Z,100250.25
2023-05-10T02:53:41.212Z,100270.78
2023-05-10T02:54:28.257Z,100257.50
2023-05-10T02:55:10.320Z,100259.38
2023-05-10T02:55:55.222Z,100248.97
2023-05-10T02:56:42.308Z,100268.22
2023-05-10T02:57:26.215Z,100251.78
2023-05-10T02:58:09.291Z,100247.41
2023-05-10T02:58:49.227Z,100249.25
2023-05-10T02:59:36.272Z,100268.94
2023-05-10T03:00:10.772Z,100267.63
2023-05-10T03:00:59.384Z,100268.22
2023-05-10T03:01:33.338Z,100275.06
2023-05-10T03:02:21.262Z,100252.81
2023-05-10T03:02:55.569Z,100268.38
2023-05-10T03:03:42.208Z,100274.47
2023-05-10T03:04:16.154Z,100242.00
2023-05-10T03:04:57.325Z,100248.53
2023-05-10T03:05:32.454Z,100252.66
2023-05-10T03:06:06.182Z,100265.22
2023-05-10T03:06:47.202Z,100266.34
2023-05-10T03:07:22.297Z,100240.25
2023-05-10T03:07:56.540Z,100244.72
2023-05-10T03:08:37.221Z,100269.63
2023-05-10T03:09:12.106Z,100251.53
2023-05-10T03:09:46.237Z,100254.22
2023-05-10T03:10:27.250Z,100273.06
2023-05-10T03:11:28.471Z,100266.06
2023-05-10T03:12:47.139Z,100249.97
2023-05-10T03:13:44.241Z,100266.34
2023-05-10T03:14:31.344Z,100272.78
2023-05-10T03:15:13.148Z,100247.28
2023-05-10T03:16:15.248Z,100268.50
2023-05-10T03:16:54.313Z,100252.22
2023-05-10T03:17:58.186Z,100260.78
2023-05-10T03:18:51.192Z,100270.66
2023-05-10T03:19:44.277Z,100262.81
2023-05-10T03:20:39.216Z,100252.53
2023-05-10T03:21:23.221Z,100265.09
2023-05-10T03:22:23.219Z,100260.66
2023-05-10T03:23:35.196Z,100247.13
2023-05-10T03:24:30.239Z,100258.94
2023-05-10T03:25:25.179Z,100250.66
2023-05-10T03:26:20.220Z,100252.53
2023-05-10T03:27:04.231Z,100259.94
2023-05-10T03:27:48.314Z,100251.41
2023-05-10T03:28:29.200Z,100269.47
2023-05-10T03:29:10.292Z,100240.97
2023-05-10T03:29:52.186Z,100233.56
2023-05-10T03:30:33.272Z,100262.94
2023-05-10T03:31:14.207Z,100253.94
2023-05-10T03:31:54.370Z,100251.41
2023-05-10T03:32:35.236Z,100249.13
2023-05-10T03:33:15.404Z,100247.25
2023-05-10T03:33:57.183Z,100263.94
2023-05-10T03:34:38.287Z,100242.97
2023-05-10T03:35:21.182Z,100259.06
2023-05-10T03:36:01.365Z,100265.66
2023-05-10T03:36:42.167Z,100238.84
2023-05-10T03:37:22.299Z,100243.13
2023-05-10T03:38:03.187Z,100248.97
2023-05-10T03:38:43.253Z,100244.28
2023-05-10T03:39:24.162Z,100240.56
2023-05-10T03:40:04.274Z,100239.84
2023-05-10T03:40:45.187Z,100260.06
2023-05-10T03:41:26.314Z,100241.69
2023-05-10T03:42:07.263Z,100260.81
2023-05-10T03:42:47.287Z,100245.53
2023-05-10T03:43:27.197Z,100252.25
2023-05-10T03:44:07.276Z,100250.53
2023-05-10T03:44:48.186Z,100237.84
2023-05-10T03:45:28.253Z,100252.69
2023-05-10T03:46:13.197Z,100241.69
2023-05-10T03:46:53.385Z,100235.44
2023-05-10T03:47:33.179Z,100224.59
2023-05-10T03:48:14.747Z,100248.25
2023-05-10T03:48:55.193Z,100236.72
2023-05-10T03:49:35.269Z,100242.00
2023-05-10T03:50:16.277Z,100237.72
2023-05-10T03:50:57.332Z,100238.41
2023-05-10T03:51:38.150Z,100267.94
2023-05-10T03:52:19.113Z,100250.94
2023-05-10T03:53:00.190Z,100250.94
2023-05-10T03:53:40.285Z,100243.97
2023-05-10T03:54:21.208Z,100241.44
2023-05-10T03:55:01.271Z,100257.53
2023-05-10T03:55:43.188Z,100256.09
2023-05-10T03:56:23.262Z,100231.16
2023-05-10T03:57:03.184Z,100256.25
2023-05-10T03:57:43.244Z,100255.66
2023-05-10T03:58:24.152Z,100246.25
2023-05-10T03:59:08.278Z,100228.59
2023-05-10T03:59:48.237Z,100253.78
2023-05-10T04:00:28.249Z,100248.25
2023-05-10T04:01:08.143Z,100252.94
2023-05-10T04:01:48.269Z,100235.97
2023-05-10T04:02:29.221Z,100251.38
2023-05-10T04:03:09.422Z,100236.84
2023-05-10T04:03:49.212Z,100240.00
2023-05-10T04:04:29.250Z,100247.66
2023-05-10T04:05:10.173Z,100247.09
2023-05-10T04:05:50.316Z,100234.13
2023-05-10T04:06:31.227Z,100222.16
2023-05-10T04:07:11.377Z,100244.00
2023-05-10T04:07:52.183Z,100234.59
2023-05-10T04:08:32.257Z,100233.16
2023-05-10T04:09:13.150Z,100249.09
2023-05-10T04:09:53.429Z,100221.47
2023-05-10T04:10:34.160Z,100249.38
2023-05-10T04:11:19.243Z,100252.81
2023-05-10T04:11:59.155Z,100252.13
2023-05-10T04:12:39.233Z,100231.88
2023-05-10T04:13:19.230Z,100222.31
2023-05-10T04:13:59.237Z,100247.97
2023-05-10T04:14:40.147Z,100243.97
2023-05-10T04:15:20.403Z,100218.59
2023-05-10T04:16:00.179Z,100238.84
2023-05-10T04:16:40.333Z,100230.88
2023-05-10T04:17:20.186Z,100245.25
2023-05-10T04:18:00.253Z,100232.44
2023-05-10T04:18:41.146Z,100221.72
2023-05-10T04:19:21.265Z,100220.03
2023-05-10T04:20:02.145Z,100228.59
2023-05-10T04:20:42.288Z,100228.84
2023-05-10T04:21:23.148Z,100247.53
2023-05-10T04:22:03.241Z,100250.38
2023-05-10T04:22:44.135Z,100243.13
2023-05-10T04:23:24.253Z,100250.38
2023-05-10T04:24:04.121Z,100246.13
2023-05-10T04:24:44.231Z,100251.38
2023-05-10T04:25:24.128Z,100243.69
2023-05-10T04:26:08.268Z,100222.03
2023-05-10T04:26:49.161Z,100237.97
2023-05-10T04:27:29.231Z,100226.03
2023-05-10T04:28:09.141Z,100231.72
2023-05-10T04:28:49.214Z,100227.72
2023-05-10T04:29:29.150Z,100246.97
2023-05-10T04:30:10.503Z,100227.72
2023-05-10T04:30:51.164Z,100246.53
2023-05-10T04:31:31.343Z,100250.13
2023-05-10T04:32:12.173Z,100246.09
2023-05-10T04:32:52.308Z,100248.53
2023-05-10T04:33:33.181Z,100248.41
2023-05-10T04:34:13.260Z,100245.97
2023-05-10T04:34:54.131Z,100254.09
2023-05-10T04:35:35.087Z,100249.69
2023-05-10T04:36:16.124Z,100246.56
2023-05-10T04:36:56.539Z,100248.97
2023-05-10T04:37:36.164Z,100233.44
2023-05-10T04:38:16.266Z,100258.50
2023-05-10T04:38:57.174Z,100256.53
2023-05-10T04:39:37.338Z,100244.09
2023-05-10T04:40:18.420Z,100229.16
2023-05-10T04:40:59.248Z,100241.41
2023-05-10T04:41:39.211Z,100250.22
2023-05-10T04:42:19.242Z,100257.34
2023-05-10T04:43:00.399Z,100254.63
2023-05-10T04:43:40.203Z,100245.22
2023-05-10T04:44:20.146Z,100234.81
2023-05-10T04:45:00.252Z,100257.63
2023-05-10T04:45:41.155Z,100253.94
2023-05-10T04:46:21.308Z,100255.91
2023-05-10T04:47:04.169Z,100246.81
2023-05-10T04:47:44.274Z,100234.81
2023-05-10T04:48:24.142Z,100225.72
2023-05-10T04:49:04.405Z,100236.25
2023-05-10T04:49:44.153Z,100249.53
2023-05-10T04:50:24.183Z,100257.66
2023-05-10T04:51:05.205Z,100246.66
2023-05-10T04:51:45.258Z,100247.94
2023-05-10T04:52:25.126Z,100244.22
2023-05-10T04:53:05.272Z,100242.25
2023-05-10T04:53:54.183Z,100262.94
2023-05-10T04:54:42.237Z,100244.53
2023-05-10T04:55:22.107Z,100257.78
2023-05-10T04:56:02.261Z,100256.66
2023-05-10T04:56:42.215Z,100237.84
2023-05-10T04:57:22.299Z,100249.97
2023-05-10T04:58:04.159Z,100229.56
2023-05-10T04:58:45.482Z,100242.94
2023-05-10T04:59:25.173Z,100261.75
2023-05-10T05:00:05.337Z,100249.97
2023-05-10T05:00:46.139Z,100261.34
2023-05-10T05:01:26.271Z,100247.38
2023-05-10T05:02:07.203Z,100202.78
2023-05-10T05:02:51.304Z,100250.69
2023-05-10T05:03:31.162Z,100248.69
2023-05-10T05:04:11.198Z,100254.50
2023-05-10T05:04:52.101Z,100248.94
2023-05-10T05:05:32.206Z,100240.53
2023-05-10T05:06:13.130Z,100254.22
2023-05-10T05:06:53.989Z,100247.09
2023-05-10T05:07:35.117Z,100259.19
2023-05-10T05:08:15.278Z,100255.22
2023-05-10T05:08:57.105Z,100250.81
2023-05-10T05:09:38.204Z,100260.75
2023-05-10T05:10:19.366Z,100271.88
2023-05-10T05:11:00.554Z,100259.31
2023-05-10T05:11:41.121Z,100251.06
2023-05-10T05:12:21.216Z,100268.88
2023-05-10T05:13:01.120Z,100254.47
2023-05-10T05:13:41.422Z,100255.75
2023-05-10T05:14:22.112Z,100265.00
2023-05-10T05:15:02.188Z,100259.03
2023-05-10T05:15:43.164Z,100269.44
2023-05-10T05:16:23.251Z,100255.91
2023-05-10T05:17:04.114Z,100233.63
2023-05-10T05:17:44.234Z,100259.16
2023-05-10T05:18:25.159Z,100271.56
2023-05-10T05:19:05.246Z,100274.59
2023-05-10T05:19:46.139Z,100269.16
2023-05-10T05:20:26.294Z,100268.88
2023-05-10T05:21:07.102Z,100256.19
2023-05-10T05:21:48.187Z,100279.72
2023-05-10T05:22:35.121Z,100270.25
2023-05-10T05:23:15.204Z,100261.31
2023-05-10T05:23:56.121Z,100264.84
2023-05-10T05:24:36.748Z,100258.00
2023-05-10T05:25:19.117Z,100244.47
2023-05-10T05:26:00.237Z,100255.28
2023-05-10T05:26:41.114Z,100273.25
2023-05-10T05:27:25.309Z,100272.53
2023-05-10T05:28:06.092Z,100264.00
2023-05-10T05:28:46.235Z,100278.06
2023-05-10T05:29:26.109Z,100266.38
2023-05-10T05:30:07.440Z,100250.69
2023-05-10T05:30:48.087Z,100270.78
2023-05-10T05:31:28.246Z,100267.66
2023-05-10T05:32:08.274Z,100276.34
2023-05-10T05:32:48.293Z,100278.34
2023-05-10T05:33:29.090Z,100248.41
2023-05-10T05:34:09.277Z,100268.66
2023-05-10T05:34:51.102Z,100249.84
2023-05-10T05:35:31.196Z,100248.16
2023-05-10T05:36:13.068Z,100275.91
2023-05-10T05:36:53.178Z,100269.03
2023-05-10T05:37:34.119Z,100261.47
2023-05-10T05:38:14.168Z,100267.19
2023-05-10T05:38:55.121Z,100259.31
2023-05-10T05:39:35.446Z,100241.53
2023-05-10T05:40:16.091Z,100278.03
2023-05-10T05:40:56.220Z,100252.78
2023-05-10T05:41:36.069Z,100269.47
2023-05-10T05:42:19.672Z,100272.28
2023-05-10T05:43:01.144Z,100250.16
2023-05-10T05:43:41.207Z,100249.47
2023-05-10T05:44:21.075Z,100264.88
2023-05-10T05:45:01.173Z,100269.41
2023-05-10T05:45:42.116Z,100247.47
2023-05-10T05:46:22.236Z,100274.31
2023-05-10T05:47:03.073Z,100274.56
2023-05-10T05:47:43.252Z,100262.84
2023-05-10T05:48:23.072Z,100262.84
2023-05-10T05:49:03.244Z,100265.97
2023-05-10T05:49:43.087Z,100276.50
2023-05-10T05:50:23.175Z,100264.00
2023-05-10T05:51:07.397Z,100244.88
2023-05-10T05:51:50.519Z,100271.28
2023-05-10T05:52:30.080Z,100257.91
2023-05-10T05:53:10.162Z,100267.31
2023-05-10T05:53:50.114Z,100262.69
2023-05-10T05:54:30.133Z,100270.41
2023-05-10T05:55:11.054Z,100266.97
2023-05-10T05:56:06.245Z,100260.19
2023-05-10T05:56:47.093Z,100256.72
2023-05-10T05:57:27.661Z,100252.00
2023-05-10T05:58:08.086Z,100267.69
2023-05-10T05:58:48.574Z,100253.78
2023-05-10T05:59:29.075Z,100273.19
2023-05-10T06:00:09.161Z,100250.66
2023-05-10T06:00:50.055Z,100265.59
2023-05-10T06:02:02.170Z,100244.16
2023-05-10T06:03:04.246Z,100254.63
2023-05-10T06:03:58.246Z,100260.34
2023-05-10T06:04:45.086Z,100254.03
2023-05-10T06:05:19.269Z,100261.47
2023-05-10T06:06:06.064Z,100254.09
2023-05-10T06:06:40.150Z,100246.03
2023-05-10T06:07:28.064Z,100269.56
2023-05-10T06:08:02.224Z,100267.94
2023-05-10T06:08:49.064Z,100249.84
2023-05-10T06:09:25.458Z,100246.59
2023-05-10T06:10:05.130Z,100259.84
2023-05-10T06:10:46.275Z,100250.00
2023-05-10T06:11:26.048Z,100256.75
2023-05-10T06:12:06.138Z,100249.00
2023-05-10T06:12:47.060Z,100254.56
2023-05-10T06:13:33.285Z,100262.66
2023-05-10T06:14:15.061Z,100261.50
2023-05-10T06:14:55.145Z,100250.84
2023-05-10T06:15:36.137Z,100250.56
2023-05-10T06:16:17.164Z,100264.31
2023-05-10T06:16:57.201Z,100258.16
2023-05-10T06:17:37.202Z,100237.38
2023-05-10T06:18:17.057Z,100251.09
2023-05-10T06:18:57.382Z,100258.88
2023-05-10T06:19:37.051Z,100221.69
2023-05-10T06:20:31.046Z,100259.59
2023-05-10T06:21:12.058Z,100263.84
2023-05-10T06:21:53.807Z,100264.41
2023-05-10T06:22:34.067Z,100267.19
2023-05-10T06:23:14.150Z,100261.47
2023-05-10T06:23:54.045Z,100251.06
2023-05-10T06:24:34.126Z,100265.88
2023-05-10T06:25:16.296Z,100243.00
2023-05-10T06:25:57.141Z,100259.13
2023-05-10T06:26:37.078Z,100257.81
2023-05-10T06:27:17.151Z,100267.81
2023-05-10T06:27:58.092Z,100252.31
2023-05-10T06:28:40.092Z,100267.34
2023-05-10T06:29:20.077Z,100258.06
2023-05-10T06:30:11.934Z,100269.78
2023-05-10T06:30:53.103Z,100262.13
2023-05-10T06:31:33.208Z,100263.53
2023-05-10T06:32:14.058Z,100251.13
2023-05-10T06:32:54.597Z,100257.09
2023-05-10T06:33:35.022Z,100264.47
2023-05-10T06:34:15.124Z,100259.50
2023-05-10T06:34:55.032Z,100262.59
2023-05-10T06:35:36.176Z,100269.53
2023-05-10T06:36:17.022Z,100254.25
2023-05-10T06:36:57.168Z,100240.91
2023-05-10T06:37:37.052Z,100255.84
2023-05-10T06:38:17.129Z,100268.13
2023-05-10T06:38:59.063Z,100254.91
2023-05-10T06:39:39.346Z,100260.81
2023-05-10T06:40:41.018Z,100248.84
2023-05-10T06:41:35.029Z,100238.00
2023-05-10T06:42:29.034Z,100267.25
2023-05-10T06:43:09.039Z,100254.00
2023-05-10T06:43:49.116Z,100244.84
2023-05-10T06:44:30.032Z,100262.88
2023-05-10T06:45:10.186Z,100233.94
2023-05-10T06:45:50.030Z,100263.34
2023-05-10T06:46:30.125Z,100257.72
2023-05-10T06:47:09.997Z,100251.09
2023-05-10T06:47:50.265Z,100246.00
2023-05-10T06:48:31.059Z,100244.44
2023-05-10T06:49:11.142Z,100242.72
2023-05-10T06:49:52.034Z,100260.47
2023-05-10T06:50:32.121Z,100256.41
2023-05-10T06:51:12.041Z,100269.66
2023-05-10T06:51:52.672Z,100260.69
2023-05-10T06:52:34.016Z,100246.03
2023-05-10T06:53:14.269Z,100238.53
2023-05-10T06:53:55.052Z,100252.53
2023-05-10T06:54:35.118Z,100249.47
2023-05-10T06:55:16.320Z,100252.91
2023-05-10T06:56:11.039Z,100239.47
2023-05-10T06:57:10.796Z,100260.59
2023-05-10T06:58:10.017Z,100257.19
2023-05-10T06:59:04.104Z,100246.31
2023-05-10T06:59:57.992Z,100260.28
2023-05-10T07:00:53.067Z,100238.41
2023-05-10T07:01:47.101Z,100252.19
2023-05-10T07:02:41.054Z,100252.72
2023-05-10T07:03:35.006Z,100250.47
2023-05-10T07:04:22.037Z,100256.97
2023-05-10T07:04:56.201Z,100245.34
2023-05-10T07:05:44.040Z,100237.19
2023-05-10T07:06:29.532Z,100230.75
2023-05-10T07:07:20.999Z,100252.25
2023-05-10T07:07:55.070Z,100251.06
2023-05-10T07:08:42.032Z,100246.78
2023-05-10T07:09:16.674Z,100242.50
2023-05-10T07:09:59.031Z,100250.03
2023-05-10T07:10:39.102Z,100259.59
2023-05-10T07:11:20.013Z,100242.59
2023-05-10T07:12:00.169Z,100244.66
2023-05-10T07:12:41.051Z,100241.94
2023-05-10T07:13:21.250Z,100238.00
2023-05-10T07:14:00.995Z,100230.03
2023-05-10T07:14:41.139Z,100208.59
2023-05-10T07:15:21.095Z,100243.81
2023-05-10T07:16:01.504Z,100240.28
2023-05-10T07:16:43.071Z,100231.06
2023-05-10T07:17:23.186Z,100234.31
2023-05-10T07:18:03.188Z,100243.03
2023-05-10T07:18:43.127Z,100240.47
2023-05-10T07:19:23.012Z,100229.53
2023-05-10T07:20:04.535Z,100227.34
2023-05-10T07:20:46.018Z,100232.31
2023-05-10T07:21:29.385Z,100223.97
2023-05-10T07:22:11.018Z,100215.47
2023-05-10T07:22:51.220Z,100226.06
2023-05-10T07:23:31.059Z,100242.84
2023-05-10T07:24:11.292Z,100240.97
2023-05-10T07:24:52.020Z,100236.75
2023-05-10T07:25:32.148Z,100225.00
2023-05-10T07:26:13.018Z,100225.00
2023-05-10T07:26:53.056Z,100233.38
2023-05-10T07:27:32.968Z,100232.69
2023-05-10T07:28:13.073Z,100236.09
2023-05-10T07:28:53.982Z,100237.63
2023-05-10T07:29:34.167Z,100243.28
2023-05-10T07:30:14.983Z,100232.19
2023-05-10T07:30:55.124Z,100225.56
2023-05-10T07:31:35.011Z,100226.75
2023-05-10T07:32:15.117Z,100237.38
2023-05-10T07:32:56.035Z,100230.50
2023-05-10T07:33:36.289Z,100229.31
2023-05-10T07:34:17.032Z,100239.72
2023-05-10T07:34:57.080Z,100226.09
2023-05-10T07:35:37.062Z,100219.25
2023-05-10T07:36:17.074Z,100221.31
2023-05-10T07:36:59.016Z,100233.06
2023-05-10T07:37:39.073Z,100229.88
2023-05-10T07:38:19.985Z,100227.16
2023-05-10T07:39:00.108Z,100227.31
2023-05-10T07:39:39.995Z,100223.75
2023-05-10T07:40:20.047Z,100198.84
2023-05-10T07:41:01.041Z,100229.19
2023-05-10T07:41:41.160Z,100211.78
2023-05-10T07:42:21.994Z,100213.50
2023-05-10T07:43:02.636Z,100207.34
2023-05-10T07:43:42.971Z,100222.91
2023-05-10T07:44:23.136Z,100222.72
2023-05-10T07:45:03.988Z,100210.06
2023-05-10T07:45:44.288Z,100232.94
2023-05-10T07:46:24.086Z,100236.19
2023-05-10T07:47:04.094Z,100232.59
2023-05-10T07:47:44.009Z,100210.81
2023-05-10T07:48:24.060Z,100217.78
2023-05-10T07:49:05.017Z,100214.53
2023-05-10T07:49:45.082Z,100217.59
2023-05-10T07:50:25.979Z,100216.91
2023-05-10T07:51:07.397Z,100216.91
2023-05-10T07:51:47.964Z,100215.75
2023-05-10T07:52:28.096Z,100194.63
2023-05-10T07:53:08.969Z,100222.03
2023-05-10T07:53:50.111Z,100217.44
2023-05-10T07:54:30.998Z,100208.25
2023-05-10T07:55:12.092Z,100220.66
2023-05-10T07:55:56.950Z,100218.59
2023-05-10T07:56:40.788Z,100221.66
2023-05-10T07:57:22.964Z,100225.75
2023-05-10T07:58:03.202Z,100211.13
2023-05-10T07:58:42.977Z,100208.91
2023-05-10T07:59:25.045Z,100207.88
2023-05-10T08:00:04.954Z,100223.91
2023-05-10T08:00:45.064Z,100217.59
2023-05-10T08:01:25.968Z,100223.22
2023-05-10T08:02:06.149Z,100217.09
2023-05-10T08:02:47.018Z,100188.09
2023-05-10T08:03:27.152Z,100191.69
2023-05-10T08:04:08.037Z,100209.25
2023-05-10T08:04:48.050Z,100221.66
2023-05-10T08:05:28.965Z,100195.94
2023-05-10T08:06:09.104Z,100217.06
2023-05-10T08:06:48.955Z,100216.03
2023-05-10T08:07:29.203Z,100204.28
2023-05-10T08:08:08.996Z,100200.53
2023-05-10T08:08:53.169Z,100197.47
2023-05-10T08:09:33.985Z,100215.50
2023-05-10T08:10:16.069Z,100196.41
2023-05-10T08:10:55.997Z,100198.13
2023-05-10T08:11:36.368Z,100206.63